Time;durP1;ratioP1;P1;durP2;ratioP2;P2;SDS_P1;SDS_P2;PMS_P1;PMS_P2;Temp;Humidity;BMP_temperature;BMP_pressure;BME280_temperature;BME280_humidity;BME280_pressure;Samples;Min_cycle;Max_cycle;Signal;HPM_P1;HPM_P2
2023/04/20 00:01:00;;;;;;;2.40;1.83;;;;;;;4.84;50.72;102124.25;5073909;28;20017;-89
2023/04/20 00:03:26;;;;;;;4.75;1.75;;;;;;;4.80;50.18;102123.81;5061895;28;20039;-89
2023/04/20 00:05:52;;;;;;;7.20;2.05;;;;;;;4.76;50.74;102124.34;5063412;28;20554;-89
2023/04/20 00:08:18;;;;;;;3.75;2.20;;;;;;;4.72;51.11;102131.88;5073274;28;20063;-89
2023/04/20 00:10:44;;;;;;;5.63;2.20;;;;;;;4.68;50.88;102119.97;5080365;28;20033;-89
2023/04/20 00:13:09;;;;;;;5.20;1.70;;;;;;;4.63;51.81;102119.72;5076731;28;20127;-88
2023/04/20 00:15:35;;;;;;;3.80;1.95;;;;;;;4.54;51.68;102114.50;5062423;28;20125;-88
2023/04/20 00:18:00;;;;;;;5.17;2.27;;;;;;;4.49;52.43;102110.78;5061480;28;20124;-89
2023/04/20 00:20:26;;;;;;;3.00;1.50;;;;;;;4.51;51.91;102100.81;5055682;28;20033;-88
2023/04/20 00:22:51;;;;;;;4.78;2.00;;;;;;;4.49;51.93;102097.50;5054667;28;20025;-87
2023/04/20 00:25:17;;;;;;;5.07;2.00;;;;;;;4.47;52.76;102096.88;5053363;28;20056;-88
2023/04/20 00:27:43;;;;;;;3.23;1.77;;;;;;;4.45;52.38;102085.59;5053511;28;20053;-89
2023/04/20 00:30:09;;;;;;;4.45;1.80;;;;;;;4.45;52.30;102088.25;5054175;28;20055;-89
2023/04/20 00:32:34;;;;;;;4.97;1.70;;;;;;;4.44;52.09;102087.44;5053686;28;20461;-89
2023/04/20 00:35:00;;;;;;;2.40;1.67;;;;;;;4.44;52.83;102078.66;5052601;28;20017;-89
2023/04/20 00:37:25;;;;;;;6.07;1.80;;;;;;;4.40;51.72;102076.34;5054536;28;20021;-88
2023/04/20 00:39:51;;;;;;;6.93;1.90;;;;;;;4.46;51.77;102074.81;5052927;28;20033;-88
2023/04/20 00:42:18;;;;;;;7.87;1.67;;;;;;;4.43;51.94;102071.69;5053557;28;20033;-88
2023/04/20 00:44:43;;;;;;;6.68;1.90;;;;;;;4.40;52.02;102064.94;5054817;28;20029;-88
2023/04/20 00:47:08;;;;;;;5.90;1.90;;;;;;;4.34;52.04;102066.50;5073280;28;20037;-88
2023/04/20 00:49:34;;;;;;;5.47;1.80;;;;;;;4.28;52.05;102050.50;5071874;28;20032;-88
2023/04/20 00:52:00;;;;;;;3.17;1.60;;;;;;;4.26;52.82;102057.81;5061620;28;20029;-88
2023/04/20 00:54:27;;;;;;;3.20;1.80;;;;;;;4.25;52.80;102051.69;5055498;28;20032;-88
2023/04/20 00:56:53;;;;;;;7.72;1.60;;;;;;;4.22;51.97;102049.38;5056359;28;20028;-88
2023/04/20 00:59:20;;;;;;;4.22;1.95;;;;;;;4.25;52.80;102041.06;5069530;28;20133;-88
2023/04/20 01:01:45;;;;;;;2.50;1.80;;;;;;;4.28;52.77;102034.59;5053276;28;20059;-88
2023/04/20 01:04:11;;;;;;;6.10;2.00;;;;;;;4.23;52.58;102028.00;5052586;28;20045;-88
2023/04/20 01:06:36;;;;;;;4.07;1.90;;;;;;;4.24;52.60;102023.50;5053934;28;20067;-88
2023/04/20 01:09:01;;;;;;;4.43;1.50;;;;;;;4.23;52.50;102022.69;5073201;28;20048;-88
2023/04/20 01:11:27;;;;;;;5.30;1.80;;;;;;;4.20;53.09;102027.56;5075845;28;20107;-89
2023/04/20 01:13:52;;;;;;;4.50;1.63;;;;;;;4.15;53.35;102017.47;5067018;28;20044;-89
2023/04/20 01:16:17;;;;;;;2.90;1.70;;;;;;;4.26;52.73;102018.03;5053663;28;20056;-88
2023/04/20 01:18:45;;;;;;;4.80;1.73;;;;;;;4.27;52.92;102011.72;5061702;28;20111;-88
2023/04/20 01:21:11;;;;;;;4.40;1.73;;;;;;;4.22;53.00;102004.28;5056637;28;20020;-88
2023/04/20 01:23:37;;;;;;;3.93;2.07;;;;;;;4.16;53.20;102002.41;5056316;28;20474;-88
2023/04/20 01:26:07;;;;;;;3.00;2.00;;;;;;;4.15;52.86;102003.41;5051659;28;20303;-88
2023/04/20 01:28:33;;;;;;;4.93;1.67;;;;;;;4.15;53.23;102003.41;5051922;28;20039;-89
2023/04/20 01:30:58;;;;;;;3.57;1.83;;;;;;;4.14;54.12;101996.44;5063340;28;20029;-89
2023/04/20 01:33:23;;;;;;;2.93;1.70;;;;;;;4.08;54.22;101993.53;5075640;28;20107;-89
2023/04/20 01:35:51;;;;;;;4.03;1.60;;;;;;;4.02;54.69;101983.63;5057625;28;20036;-88
2023/04/20 01:38:18;;;;;;;4.90;2.00;;;;;;;4.02;54.75;101993.44;5052847;28;20061;-88
2023/04/20 01:40:44;;;;;;;5.15;2.05;;;;;;;4.01;54.84;101987.31;5076046;28;20025;-87
2023/04/20 01:43:09;;;;;;;7.40;1.87;;;;;;;3.94;55.54;101973.97;5074125;28;20125;-89
2023/04/20 01:45:34;;;;;;;4.47;1.75;;;;;;;3.95;55.50;101977.44;5064224;28;20052;-89
2023/04/20 01:48:00;;;;;;;6.03;2.00;;;;;;;3.91;55.36;101973.53;5053017;28;20047;-88
2023/04/20 01:50:25;;;;;;;5.03;1.80;;;;;;;3.88;56.28;101966.75;5051622;28;20094;-89
2023/04/20 01:52:51;;;;;;;3.77;1.63;;;;;;;3.86;56.36;101963.47;5051374;28;20178;-89
2023/04/20 01:55:16;;;;;;;4.60;1.90;;;;;;;3.81;56.16;101954.44;5052597;28;20040;-89
2023/04/20 01:57:43;;;;;;;3.53;1.60;;;;;;;3.79;56.80;101959.91;5051108;28;20029;-88
2023/04/20 02:00:09;;;;;;;4.30;1.80;;;;;;;3.72;57.00;101951.06;5051079;28;20465;-89
2023/04/20 02:02:35;;;;;;;5.55;1.70;;;;;;;3.69;57.09;101946.13;5051529;28;20116;-90
2023/04/20 02:05:00;;;;;;;6.33;1.90;;;;;;;3.64;57.71;101944.03;5053486;28;20104;-90
2023/04/20 02:07:26;;;;;;;3.33;2.25;;;;;;;3.59;57.33;101941.91;5070076;28;20028;-88
2023/04/20 02:09:51;;;;;;;3.07;1.97;;;;;;;3.61;57.73;101939.09;5068724;28;20086;-88
2023/04/20 02:12:17;;;;;;;4.80;1.83;;;;;;;3.57;58.32;101935.16;5057868;28;20033;-89
2023/04/20 02:14:43;;;;;;;3.40;2.00;;;;;;;3.51;58.19;101934.06;5070114;28;20037;-88
2023/04/20 02:17:09;;;;;;;3.43;1.97;;;;;;;3.45;58.74;101930.31;5064784;28;20538;-88
2023/04/20 02:19:35;;;;;;;6.22;1.75;;;;;;;3.41;58.91;101929.03;5059185;28;20120;-88
2023/04/20 02:22:00;;;;;;;2.93;1.93;;;;;;;3.35;58.99;101924.44;5058598;28;20025;-89
2023/04/20 02:24:25;;;;;;;6.30;2.07;;;;;;;3.31;60.05;101931.13;5062830;28;20428;-88
2023/04/20 02:26:51;;;;;;;3.80;1.90;;;;;;;3.26;60.19;101920.25;5053860;28;20287;-87
2023/04/20 02:29:16;;;;;;;10.47;1.90;;;;;;;3.20;60.76;101920.97;5052467;28;20106;-88
2023/04/20 02:31:41;;;;;;;4.67;1.93;;;;;;;3.16;61.29;101921.34;5051824;28;20453;-88
2023/04/20 02:34:09;;;;;;;4.70;2.23;;;;;;;3.13;61.80;101915.59;5050348;28;20091;-88
2023/04/20 02:36:35;;;;;;;3.00;2.08;;;;;;;3.16;62.63;101916.03;5051880;28;20025;-88
2023/04/20 02:39:02;;;;;;;3.23;1.90;;;;;;;3.14;63.04;101917.22;5050137;28;20143;-88
2023/04/20 02:41:27;;;;;;;8.60;2.35;;;;;;;3.14;62.77;101906.63;5058611;28;20059;-88
2023/04/20 02:43:54;;;;;;;4.30;2.00;;;;;;;3.10;63.17;101903.53;5069616;28;20029;-88
2023/04/20 02:46:19;;;;;;;8.23;2.28;;;;;;;3.14;63.81;101906.63;5051417;28;20044;-88
2023/04/20 02:48:45;;;;;;;6.22;1.88;;;;;;;3.14;64.10;101904.81;5055965;28;20397;-87
2023/04/20 02:51:10;;;;;;;4.50;2.20;;;;;;;3.15;64.77;101903.78;5060763;28;20052;-87
2023/04/20 02:53:36;;;;;;;5.30;1.80;;;;;;;3.18;64.82;101894.69;5050921;28;20550;-88
2023/04/20 02:56:01;;;;;;;6.28;2.17;;;;;;;3.12;64.96;101893.56;5054551;28;20450;-87
2023/04/20 02:58:26;;;;;;;4.77;2.00;;;;;;;3.12;65.84;101898.84;5058424;28;20029;-87
2023/04/20 03:00:58;;;;;;;2.57;1.70;;;;;;;3.13;66.41;101900.50;5077980;28;20020;-88
2023/04/20 03:03:23;;;;;;;4.35;1.95;;;;;;;3.14;67.51;101894.22;5076567;28;20037;-87
2023/04/20 03:05:49;;;;;;;4.47;1.70;;;;;;;3.17;68.05;101893.84;5065278;28;20089;-88
2023/04/20 03:08:14;;;;;;;7.83;1.77;;;;;;;3.19;68.54;101893.69;5082102;28;20480;-87
2023/04/20 03:10:39;;;;;;;4.63;2.10;;;;;;;3.24;68.64;101886.00;5063625;28;20025;-89
2023/04/20 03:13:05;;;;;;;2.67;1.70;;;;;;;3.28;68.83;101881.16;5039369;28;20029;-88
2023/04/20 03:15:30;;;;;;;3.97;2.13;;;;;;;3.33;69.40;101879.59;5057017;28;20033;-88
2023/04/20 03:17:56;;;;;;;5.50;2.10;;;;;;;3.44;69.49;101870.38;5053751;28;20041;-88
2023/04/20 03:20:22;;;;;;;4.10;2.15;;;;;;;3.54;69.81;101871.91;5053919;28;20029;-88
2023/04/20 03:22:47;;;;;;;8.77;2.33;;;;;;;3.63;69.92;101873.47;5053465;28;20396;-88
2023/04/20 03:25:12;;;;;;;7.87;2.60;;;;;;;3.76;69.35;101868.31;5057021;28;20024;-88
2023/04/20 03:27:38;;;;;;;7.43;2.35;;;;;;;3.84;69.26;101861.22;5056742;28;20075;-88
2023/04/20 03:30:03;;;;;;;4.40;2.23;;;;;;;3.93;69.92;101863.56;5053725;28;20040;-89
2023/04/20 03:32:29;;;;;;;7.43;2.60;;;;;;;4.04;69.82;101862.25;5056074;28;20040;-88
2023/04/20 03:34:54;;;;;;;4.97;2.10;;;;;;;4.15;69.74;101860.13;5073105;28;20093;-88
2023/04/20 03:37:19;;;;;;;5.07;2.43;;;;;;;4.26;69.62;101867.59;5085174;28;20027;-88
2023/04/20 03:39:45;;;;;;;4.43;2.33;;;;;;;4.33;69.66;101857.88;5070502;28;20437;-88
2023/04/20 03:42:10;;;;;;;6.97;2.40;;;;;;;4.37;70.12;101847.69;5073661;28;20060;-89
2023/04/20 03:44:35;;;;;;;5.23;2.30;;;;;;;4.47;69.91;101852.66;5072707;28;20123;-88
2023/04/20 03:47:00;;;;;;;7.70;2.30;;;;;;;4.49;70.46;101838.19;5058379;28;20059;-88
2023/04/20 03:49:28;;;;;;;3.33;2.30;;;;;;;4.59;69.82;101850.31;5055354;28;20155;-88
2023/04/20 03:51:55;;;;;;;3.80;2.50;;;;;;;4.59;69.81;101832.53;5056755;28;20033;-88
2023/04/20 03:54:21;;;;;;;6.10;2.28;;;;;;;4.68;70.08;101841.19;5054442;28;20590;-88
2023/04/20 03:56:48;;;;;;;7.35;2.17;;;;;;;4.76;70.26;101843.69;5062745;28;20029;-87
2023/04/20 03:59:14;;;;;;;4.90;2.80;;;;;;;4.79;70.32;101832.69;5052510;28;20025;-89
2023/04/20 04:01:39;;;;;;;6.50;2.58;;;;;;;4.82;70.13;101839.44;5054425;28;20029;-89
2023/04/20 04:04:05;;;;;;;4.33;2.60;;;;;;;4.89;70.27;101844.78;5056600;28;20029;-89
2023/04/20 04:06:31;;;;;;;6.47;2.37;;;;;;;4.91;70.38;101838.28;5054740;28;20037;-88
2023/04/20 04:08:56;;;;;;;4.45;2.40;;;;;;;4.97;70.32;101831.38;5061405;28;20017;-88
2023/04/20 04:11:24;;;;;;;5.50;2.20;;;;;;;4.98;70.71;101833.00;5063378;28;20452;-88
2023/04/20 04:13:49;;;;;;;6.50;2.20;;;;;;;5.01;70.92;101835.28;5051816;28;20025;-89
2023/04/20 04:16:15;;;;;;;7.05;2.67;;;;;;;5.04;71.10;101836.72;5059245;28;20136;-89
2023/04/20 04:18:43;;;;;;;3.37;2.30;;;;;;;5.07;71.08;101833.66;5054327;28;20595;-88
2023/04/20 04:21:09;;;;;;;6.20;2.47;;;;;;;5.07;71.47;101831.00;5063136;28;20484;-88
2023/04/20 04:23:36;;;;;;;4.37;2.27;;;;;;;5.09;71.86;101824.47;5064899;28;20299;-89
2023/04/20 04:26:01;;;;;;;7.05;2.60;;;;;;;5.11;72.17;101822.44;5074200;28;20024;-89
2023/04/20 04:28:27;;;;;;;6.05;2.67;;;;;;;5.16;72.16;101808.56;5069509;28;20116;-90
2023/04/20 04:30:53;;;;;;;7.30;2.40;;;;;;;5.22;72.91;101810.44;5053910;28;20024;-89
2023/04/20 04:33:19;;;;;;;4.95;2.42;;;;;;;5.26;72.30;101798.41;5054362;28;20559;-88
2023/04/20 04:35:47;;;;;;;7.27;2.73;;;;;;;5.33;72.95;101793.13;5053947;28;20028;-92
2023/04/20 04:38:12;;;;;;;4.78;2.50;;;;;;;5.39;72.90;101788.84;5054414;28;20094;-90
2023/04/20 04:40:40;;;;;;;6.07;2.83;;;;;;;5.38;73.58;101785.38;5058963;28;20028;-89
2023/04/20 04:43:08;;;;;;;6.38;3.33;;;;;;;5.48;73.94;101789.47;5072464;28;20028;-88
2023/04/20 04:45:37;;;;;;;4.90;2.87;;;;;;;5.53;73.96;101787.84;5070633;28;20424;-89
2023/04/20 04:48:02;;;;;;;4.00;2.80;;;;;;;5.58;74.16;101793.41;5072757;28;20278;-88
2023/04/20 04:50:27;;;;;;;6.15;3.15;;;;;;;5.63;73.70;101779.50;5072356;28;20021;-88
2023/04/20 04:52:53;;;;;;;5.73;2.87;;;;;;;5.67;73.88;101790.53;5065753;28;20403;-87
2023/04/20 04:55:18;;;;;;;4.83;2.90;;;;;;;5.66;73.62;101771.13;5054259;28;22144;-87
2023/04/20 04:57:43;;;;;;;5.63;2.80;;;;;;;5.76;72.86;101776.03;5061458;28;20017;-87
2023/04/20 05:00:11;;;;;;;4.37;2.73;;;;;;;5.85;72.42;101776.69;5058001;28;20025;-89
2023/04/20 05:02:36;;;;;;;7.20;3.00;;;;;;;5.86;73.27;101773.00;5054703;28;20453;-90
2023/04/20 05:05:03;;;;;;;4.40;2.72;;;;;;;5.86;72.96;101781.78;5057201;28;20047;-93
2023/04/20 05:07:28;;;;;;;9.70;3.07;;;;;;;5.92;72.62;101777.50;5066559;28;20032;-91
2023/04/20 05:09:54;;;;;;;7.30;2.72;;;;;;;5.97;72.25;101784.88;5073470;28;20013;-92
2023/04/20 05:12:19;;;;;;;6.57;2.50;;;;;;;5.93;72.50;101773.00;5071601;28;20554;-91
2023/04/20 05:14:45;;;;;;;6.33;2.80;;;;;;;5.98;72.71;101768.69;5085304;28;20017;-95
2023/04/20 05:17:10;;;;;;;7.97;2.90;;;;;;;6.01;73.83;101780.81;5072320;28;20029;-94
2023/04/20 05:19:35;;;;;;;3.95;2.50;;;;;;;5.93;75.10;101779.16;5062138;28;20044;-93
2023/04/20 05:22:01;;;;;;;4.83;2.53;;;;;;;5.83;75.67;101765.41;5086374;28;20020;-90
2023/04/20 05:24:26;;;;;;;4.37;2.83;;;;;;;5.91;73.83;101782.00;5103242;28;20372;-92
2023/04/20 05:26:51;;;;;;;5.20;2.87;;;;;;;5.93;74.53;101776.50;5086400;28;20036;-93
2023/04/20 05:29:17;;;;;;;6.57;2.90;;;;;;;6.01;73.04;101778.16;5075569;28;20064;-90
2023/04/20 05:31:43;;;;;;;8.57;2.97;;;;;;;6.04;73.55;101788.38;5076771;28;20134;-92
2023/04/20 05:34:09;;;;;;;8.00;2.67;;;;;;;6.08;72.67;101772.84;5059626;28;20460;-92
2023/04/20 05:36:37;;;;;;;4.70;2.90;;;;;;;6.14;72.72;101772.84;5069107;28;20104;-91
2023/04/20 05:39:02;;;;;;;3.55;2.65;;;;;;;6.16;72.93;101773.47;5079819;28;20460;-94
2023/04/20 05:41:27;;;;;;;5.25;3.00;;;;;;;6.15;72.56;101769.16;5064914;28;20047;-91
2023/04/20 05:43:54;;;;;;;4.50;2.77;;;;;;;6.26;72.35;101777.53;5071625;28;20027;-91
2023/04/20 05:46:20;;;;;;;6.68;3.40;;;;;;;6.21;73.38;101772.84;5065229;28;20025;-91
2023/04/20 05:48:45;;;;;;;7.75;2.92;;;;;;;6.20;73.40;101761.38;5061541;28;20032;-90
2023/04/20 05:51:11;;;;;;;8.47;3.20;;;;;;;6.26;72.99;101764.22;5074471;28;20013;-91
2023/04/20 05:53:38;;;;;;;7.15;3.20;;;;;;;6.27;73.33;101772.03;5070484;28;20025;-92
2023/04/20 05:56:03;;;;;;;8.30;3.03;;;;;;;6.24;73.22;101751.13;5063291;28;20052;-91
2023/04/20 05:58:31;;;;;;;5.40;3.03;;;;;;;6.42;72.64;101771.78;5057764;28;20037;-91
2023/04/20 06:00:56;;;;;;;5.43;3.00;;;;;;;6.51;72.91;101761.75;5062049;28;20074;-89
2023/04/20 06:03:22;;;;;;;3.60;3.00;;;;;;;6.63;71.62;101757.44;5060834;28;20016;-91
2023/04/20 06:05:47;;;;;;;4.57;2.73;;;;;;;6.70;71.66;101760.09;5083972;28;20020;-90
2023/04/20 06:08:12;;;;;;;5.07;2.87;;;;;;;6.86;71.62;101768.66;5085412;28;20028;-89
2023/04/20 06:10:39;;;;;;;5.13;2.90;;;;;;;7.00;71.41;101754.25;5076003;28;20037;-90
2023/04/20 06:13:06;;;;;;;5.53;2.90;;;;;;;7.13;70.90;101756.03;5076778;28;20294;-88
2023/04/20 06:18:08;;;;;;;5.22;3.17;;;;;;;7.15;70.83;101739.81;5327012;22;20048;-90
2023/04/20 06:20:33;;;;;;;7.38;3.35;;;;;;;7.09;70.80;101717.50;5092455;28;20325;-91
2023/04/20 06:23:00;;;;;;;5.83;2.97;;;;;;;7.17;70.82;101730.59;5073897;28;20089;-92
2023/04/20 06:25:26;;;;;;;4.97;3.50;;;;;;;7.32;71.16;101751.63;5067669;28;20017;-92
2023/04/20 06:27:51;;;;;;;6.18;3.50;;;;;;;7.44;71.00;101733.13;5073757;28;20028;-90
2023/04/20 06:30:17;;;;;;;6.90;2.90;;;;;;;7.71;69.39;101744.44;5079888;28;20026;-93
2023/04/20 06:32:42;;;;;;;4.20;3.27;;;;;;;7.80;69.11;101746.84;5068579;28;20029;-92
2023/04/20 06:45:28;;;;;;;7.38;3.90;;;;;;;7.69;69.41;101721.69;5655231;22;20059;-94
2023/04/20 06:47:53;;;;;;;5.13;3.80;;;;;;;8.08;68.83;101745.59;5094720;28;20044;-91
2023/04/20 06:50:19;;;;;;;4.90;2.97;;;;;;;8.15;67.70;101738.34;5096026;28;20032;-91
2023/04/20 06:52:44;;;;;;;8.07;3.60;;;;;;;7.95;68.17;101742.00;5088300;28;20037;-93
2023/04/20 06:55:16;;;;;;;6.90;3.40;;;;;;;7.89;68.07;101740.19;5085806;28;20044;-92
2023/04/20 06:57:42;;;;;;;4.15;2.95;;;;;;;7.86;68.33;101740.63;5075878;28;20030;-92
2023/04/20 07:00:09;;;;;;;8.05;3.67;;;;;;;7.80;68.41;101720.16;5092499;28;20012;-94
2023/04/20 07:02:48;;;;;;;5.47;3.47;;;;;;;7.69;68.54;101730.47;5097385;28;20057;-95
2023/04/20 07:05:14;;;;;;;7.25;3.40;;;;;;;7.61;68.10;101744.09;5113059;28;20016;-94
2023/04/20 07:07:40;;;;;;;7.87;3.10;;;;;;;7.59;68.96;101740.81;5093299;28;20024;-92
2023/04/20 07:10:11;;;;;;;5.22;3.42;;;;;;;7.51;69.44;101754.41;5080438;28;20025;-91
2023/04/20 07:12:37;;;;;;;4.97;3.35;;;;;;;7.49;69.69;101743.13;5083571;28;20539;-93
2023/04/20 07:15:05;;;;;;;6.95;3.40;;;;;;;7.39;70.62;101741.75;5094935;28;20009;-94
2023/04/20 07:17:31;;;;;;;8.40;3.95;;;;;;;7.32;70.96;101734.84;5093122;28;20019;-93
2023/04/20 07:19:57;;;;;;;7.25;3.55;;;;;;;7.31;70.92;101738.53;5086991;28;20004;-92
2023/04/20 07:22:26;;;;;;;5.53;3.13;;;;;;;7.37;70.84;101738.47;5094203;28;20033;-92
2023/04/20 07:24:51;;;;;;;6.43;3.45;;;;;;;7.35;71.60;101739.75;5075952;28;20055;-92
2023/04/20 07:27:19;;;;;;;7.63;3.30;;;;;;;7.45;71.54;101732.06;5074358;28;20472;-93
2023/04/20 07:29:44;;;;;;;9.27;2.97;;;;;;;7.50;71.15;101742.09;5058577;28;20031;-94
2023/04/20 07:32:10;;;;;;;9.20;3.33;;;;;;;7.63;70.51;101741.19;5076511;28;20383;-93
2023/04/20 07:34:35;;;;;;;5.83;3.53;;;;;;;7.73;70.63;101731.69;5072720;28;20039;-94
2023/04/20 07:37:00;;;;;;;6.03;3.23;;;;;;;7.71;70.75;101725.75;5072250;28;20033;-94
2023/04/20 07:39:27;;;;;;;7.50;3.13;;;;;;;7.85;70.54;101731.81;5075847;28;20037;-91
2023/04/20 07:41:55;;;;;;;5.32;2.67;;;;;;;8.02;69.57;101733.94;5076340;28;20084;-93
2023/04/20 07:44:25;;;;;;;4.97;3.08;;;;;;;8.21;70.05;101726.81;5075327;28;20033;-94
2023/04/20 08:10:08;;;;;;;6.43;2.80;;;;;;;9.19;64.72;101702.88;5397791;22;20053;-93
2023/04/20 08:13:02;;;;;;;9.43;2.95;;;;;;;9.59;63.83;101738.16;5064786;28;20021;-94
2023/04/20 08:15:37;;;;;;;6.28;2.67;;;;;;;9.45;63.15;101706.25;5059055;28;20013;-94
2023/04/20 08:18:47;;;;;;;7.90;3.17;;;;;;;9.61;63.33;101734.19;5060968;28;20025;-94
2023/04/20 08:21:13;;;;;;;7.70;3.03;;;;;;;9.21;64.09;101683.97;5059371;28;20302;-94
2023/04/20 08:23:38;;;;;;;6.85;2.90;;;;;;;9.49;64.42;101725.31;5079105;28;20029;-95
2023/04/20 08:26:04;;;;;;;6.80;3.10;;;;;;;9.53;64.17;101727.31;5071664;28;20140;-93
2023/04/20 08:28:30;;;;;;;9.33;2.80;;;;;;;9.45;64.20;101714.28;5074465;28;20017;-95
2023/04/20 08:30:55;;;;;;;6.07;3.20;;;;;;;9.42;64.71;101703.19;5071468;28;20295;-94
2023/04/20 08:33:21;;;;;;;7.60;3.43;;;;;;;9.67;64.06;101700.38;5073705;28;20045;-93
2023/04/20 08:35:46;;;;;;;7.70;3.30;;;;;;;9.97;63.15;101686.06;5061022;28;20021;-92
2023/04/20 08:38:11;;;;;;;4.32;2.90;;;;;;;10.12;61.94;101683.75;5071590;28;20017;-93
2023/04/20 08:40:38;;;;;;;4.10;2.67;;;;;;;10.09;62.34;101692.22;5054605;28;20162;-93
2023/04/20 08:43:12;;;;;;;8.18;2.97;;;;;;;10.10;62.84;101682.34;5040578;28;20124;-93
2023/04/20 08:45:40;;;;;;;7.30;2.90;;;;;;;10.53;62.44;101691.88;5042287;28;20053;-93
2023/04/20 08:48:09;;;;;;;4.60;3.30;;;;;;;11.10;60.37;101698.34;5041598;28;20056;-94
2023/04/20 08:50:36;;;;;;;8.07;3.53;;;;;;;11.45;58.24;101694.66;5042503;28;20280;-95
2023/04/20 08:53:13;;;;;;;3.55;2.70;;;;;;;11.77;57.01;101698.66;5045360;28;20051;-94
2023/04/20 08:55:38;;;;;;;3.78;2.33;;;;;;;11.77;56.02;101669.97;5056217;28;20107;-94
2023/04/20 09:12:48;;;;;;;3.97;2.53;;;;;;;10.79;58.06;101702.28;5037168;28;20048;-95
2023/04/20 09:15:28;;;;;;;5.97;2.63;;;;;;;10.48;58.86;101683.75;5043614;28;20022;-96
2023/04/20 09:17:57;;;;;;;3.08;2.40;;;;;;;10.28;58.85;101659.97;5062842;28;20112;-96
2023/04/20 09:20:27;;;;;;;3.13;2.22;;;;;;;10.60;58.59;101689.06;5060168;28;20183;-92
2023/04/20 09:22:53;;;;;;;3.60;2.70;;;;;;;10.74;59.47;101682.41;5055828;28;20484;-93
2023/04/20 09:25:19;;;;;;;4.10;2.87;;;;;;;10.99;58.00;101667.81;5054605;28;20357;-94
2023/04/20 09:27:59;;;;;;;3.40;2.47;;;;;;;11.47;57.47;101689.88;5057303;28;20089;-95
2023/04/20 09:30:24;;;;;;;4.53;2.80;;;;;;;11.59;55.50;101689.81;5055471;28;20040;-94
2023/04/20 09:33:01;;;;;;;5.30;3.00;;;;;;;11.61;57.36;101689.53;5058075;28;20347;-95
2023/04/20 09:35:26;;;;;;;4.00;2.83;;;;;;;11.55;55.60;101685.97;5057054;28;20115;-93
2023/04/20 09:37:53;;;;;;;4.37;2.23;;;;;;;11.20;56.31;101695.03;5055978;28;20051;-95
2023/04/20 09:40:20;;;;;;;2.35;2.10;;;;;;;11.10;56.45;101692.19;5058155;28;20104;-93
2023/04/20 09:42:49;;;;;;;3.13;2.70;;;;;;;10.86;57.11;101681.53;5055297;28;20028;-94
2023/04/20 09:45:16;;;;;;;3.23;2.70;;;;;;;10.83;56.85;101679.31;5056755;28;20400;-94
2023/04/20 09:47:43;;;;;;;3.65;2.40;;;;;;;10.63;56.99;101685.91;5058131;28;20525;-94
2023/04/20 09:50:10;;;;;;;4.05;2.35;;;;;;;10.55;58.06;101676.38;5058156;28;20032;-94
2023/04/20 09:52:37;;;;;;;4.63;2.53;;;;;;;10.81;58.11;101678.75;5057311;28;20040;-94
2023/04/20 09:55:11;;;;;;;4.90;2.78;;;;;;;11.01;56.92;101668.41;5064535;28;20033;-95
2023/04/20 10:10:32;;;;;;;7.73;2.50;;;;;;;12.18;52.53;101642.91;3377556;26;20136;-96
2023/04/20 10:13:18;;;;;;;3.17;2.50;;;;;;;12.40;53.12;101658.22;5063654;28;20299;-94
2023/04/20 10:15:52;;;;;;;4.55;2.50;;;;;;;12.20;53.34;101626.53;5062032;28;20029;-96
2023/04/20 10:21:22;;;;;;;4.38;2.65;;;;;;;11.60;53.20;101618.13;5050581;28;20055;-94
2023/04/20 10:26:40;;;;;;;5.23;2.60;;;;;;;11.67;54.94;101651.00;5067776;22;20328;-93
2023/04/20 10:29:05;;;;;;;4.47;2.80;;;;;;;11.60;55.71;101651.16;5017450;28;20049;-94
2023/04/20 10:31:38;;;;;;;4.85;2.67;;;;;;;11.81;55.84;101636.16;5017043;28;20026;-94
2023/04/20 10:34:04;;;;;;;5.40;3.03;;;;;;;12.02;54.08;101636.50;5017886;28;20026;-93
2023/04/20 10:36:35;;;;;;;4.57;3.10;;;;;;;12.24;54.08;101633.81;5018606;28;20033;-95
2023/04/20 10:39:15;;;;;;;5.60;2.72;;;;;;;12.51;53.17;101648.38;5018264;28;20037;-94
2023/04/20 10:41:57;;;;;;;5.93;3.33;;;;;;;12.56;54.46;101635.00;5020453;28;20053;-93
2023/04/20 10:59:54;;;;;;;5.45;2.80;;;;;;;12.92;51.46;101615.78;6144991;22;20027;-92
2023/04/20 11:45:17;;;;;;;5.68;3.30;;;;;;;10.90;56.96;101552.09;5328239;23;20071;-95
2023/04/20 11:47:44;;;;;;;14.63;4.00;;;;;;;11.28;56.71;101541.72;4946426;28;20032;-93
2023/04/20 11:50:11;;;;;;;11.02;3.22;;;;;;;11.72;54.93;101543.69;4933930;29;20035;-94
2023/04/20 11:52:36;;;;;;;4.77;3.90;;;;;;;12.01;55.91;101532.00;4931883;29;20087;-94
2023/04/20 11:55:01;;;;;;;6.72;3.38;;;;;;;12.00;56.42;101541.13;4932607;29;20040;-94
2023/04/20 11:57:28;;;;;;;4.07;3.67;;;;;;;11.76;59.10;101562.78;4931906;29;20035;-92
2023/04/20 11:59:53;;;;;;;5.43;4.18;;;;;;;11.04;63.62;101552.59;4931013;29;20046;-94
2023/04/20 12:02:19;;;;;;;4.10;3.50;;;;;;;10.65;64.54;101562.38;4922810;29;20020;-95
2023/04/20 12:04:45;;;;;;;8.27;4.00;;;;;;;9.84;69.89;101564.81;4930253;29;20837;-94
2023/04/20 12:07:10;;;;;;;6.57;4.22;;;;;;;9.61;70.99;101580.84;4948397;29;20027;-93
2023/04/20 12:09:37;;;;;;;14.20;4.90;;;;;;;9.09;81.45;101585.78;4947061;29;20098;-90
2023/04/20 12:12:06;;;;;;;8.13;5.13;;;;;;;8.77;85.96;101601.25;4933357;29;20114;-90
2023/04/20 12:14:35;;;;;;;7.88;5.55;;;;;;;8.53;91.83;101603.84;4905375;29;20029;-89
2023/04/20 12:17:02;;;;;;;9.75;5.90;;;;;;;8.69;98.68;101601.59;4924831;29;20028;-89
2023/04/20 12:19:28;;;;;;;7.47;5.78;;;;;;;8.98;98.85;101586.59;4915434;29;20032;-90
2023/04/20 12:21:55;;;;;;;8.82;6.13;;;;;;;9.46;100.00;101587.50;4939260;29;20040;-90
2023/04/20 12:24:21;;;;;;;8.60;5.63;;;;;;;9.76;100.00;101581.19;4951295;29;20024;-92
2023/04/20 12:26:46;;;;;;;8.02;4.85;;;;;;;9.90;94.89;101570.25;4916208;29;20028;-91
2023/04/20 12:29:13;;;;;;;5.77;4.93;;;;;;;10.01;95.14;101582.81;4929481;29;20109;-92
2023/04/20 12:31:39;;;;;;;6.47;4.68;;;;;;;10.14;86.56;101569.16;4933215;29;20039;-92
2023/04/20 12:34:06;;;;;;;7.85;4.88;;;;;;;10.03;85.57;101572.69;4918125;29;20040;-93
2023/04/20 12:36:33;;;;;;;5.00;3.78;;;;;;;10.12;81.98;101568.59;4929234;29;20056;-93
2023/04/20 12:38:59;;;;;;;6.33;4.10;;;;;;;10.24;78.66;101562.38;4926499;29;20031;-92
2023/04/20 12:41:24;;;;;;;5.40;4.17;;;;;;;10.43;76.46;101569.22;4933019;28;20343;-92
2023/04/20 12:43:51;;;;;;;4.90;4.17;;;;;;;10.63;76.52;101557.25;4960918;23;20048;-93
2023/04/20 12:46:18;;;;;;;5.97;3.88;;;;;;;10.87;76.87;101530.34;4942129;29;20028;-92
2023/04/20 12:48:45;;;;;;;4.80;4.00;;;;;;;11.34;73.15;101537.25;4941670;28;20020;-92
2023/04/20 12:51:12;;;;;;;3.90;3.47;;;;;;;11.78;68.16;101529.25;4912038;29;20032;-93
2023/04/20 12:53:37;;;;;;;4.57;4.05;;;;;;;12.15;66.43;101509.06;4920704;29;20039;-92
2023/04/20 12:56:06;;;;;;;5.27;4.20;;;;;;;12.40;63.37;101529.22;4927180;29;20024;-93
2023/04/20 12:58:32;;;;;;;6.82;4.55;;;;;;;12.21;63.83;101545.69;4928258;29;20091;-93
2023/04/20 13:01:01;;;;;;;4.77;4.27;;;;;;;11.50;64.67;101506.88;4914708;29;20028;-94
2023/04/20 13:03:34;;;;;;;4.63;4.00;;;;;;;11.01;69.13;101518.22;4907364;29;20027;-94
2023/04/20 13:05:59;;;;;;;4.93;4.25;;;;;;;10.67;69.66;101520.09;4895616;29;20033;-92
2023/04/20 13:08:25;;;;;;;4.50;4.10;;;;;;;10.56;68.26;101513.72;4888811;29;20028;-92
2023/04/20 13:10:50;;;;;;;6.23;4.60;;;;;;;10.54;70.47;101547.97;4908601;29;20116;-94
2023/04/20 13:13:16;;;;;;;6.00;3.73;;;;;;;10.77;65.62;101541.69;4909116;29;20032;-93
2023/04/20 13:15:44;;;;;;;6.22;4.63;;;;;;;10.85;67.83;101511.00;4894524;29;20042;-94
2023/04/20 13:18:14;;;;;;;7.00;4.33;;;;;;;11.11;65.45;101498.81;4912120;29;20060;-94
2023/04/20 13:20:39;;;;;;;7.73;4.40;;;;;;;11.21;64.48;101490.09;4908136;29;20273;-92
2023/04/20 13:23:08;;;;;;;5.15;4.00;;;;;;;10.99;63.29;101488.16;4900471;29;20035;-92
2023/04/20 13:25:37;;;;;;;4.70;4.20;;;;;;;10.79;64.68;101495.88;4904493;29;20054;-91
2023/04/20 13:28:09;;;;;;;4.97;3.42;;;;;;;11.14;63.92;101527.00;4902916;29;20491;-93
2023/04/20 13:30:36;;;;;;;9.27;4.78;;;;;;;10.88;65.20;101521.25;4915550;29;20044;-91
2023/04/20 13:33:15;;;;;;;6.83;4.77;;;;;;;10.81;65.84;101493.75;4908246;29;20056;-91
2023/04/20 13:35:41;;;;;;;9.70;4.00;;;;;;;11.30;62.85;101523.53;4894945;29;20856;-91
2023/04/20 13:38:14;;;;;;;5.57;4.45;;;;;;;11.24;63.11;101513.75;4907449;29;20037;-93